createdAt,value
2023-04-07T00:00:50.461Z,100144.69
2023-04-07T00:03:24.874Z,100144.98
2023-04-07T00:05:53.873Z,100148.52
2023-04-07T00:08:22.213Z,100145.17
2023-04-07T00:10:50.561Z,100141.39
2023-04-07T00:13:21.070Z,100142.52
2023-04-07T00:15:49.747Z,100141.91
2023-04-07T00:18:25.061Z,100135.65
2023-04-07T00:20:53.682Z,100136.22
2023-04-07T00:23:22.174Z,100133.75
2023-04-07T00:25:50.531Z,100134.72
2023-04-07T00:28:19.129Z,100136.66
2023-04-07T00:30:52.258Z,100136.97
2023-04-07T00:33:21.015Z,100138.16
2023-04-07T00:35:50.117Z,100140.63
2023-04-07T00:38:19.011Z,100143.77
2023-04-07T00:40:47.536Z,100147.73
2023-04-07T00:43:15.841Z,100150.34
2023-04-07T00:45:45.051Z,100150.11
2023-04-07T00:48:13.404Z,100149.94
2023-04-07T00:50:42.357Z,100146.23
2023-04-07T00:53:12.051Z,100138.23
2023-04-07T00:55:40.674Z,100130.19
2023-04-07T00:58:09.714Z,100123.66
2023-04-07T01:00:52.289Z,100127.00
2023-04-07T01:03:34.051Z,100122.27
2023-04-07T01:06:07.205Z,100108.47
2023-04-07T01:08:35.774Z,100106.93
2023-04-07T01:11:24.854Z,100100.63
2023-04-07T01:13:55.363Z,100102.59
2023-04-07T01:16:50.835Z,100102.98
2023-04-07T01:19:38.456Z,100105.92
2023-04-07T01:22:14.228Z,100106.96
2023-04-07T01:24:51.466Z,100104.09
2023-04-07T01:27:41.784Z,100099.21
2023-04-07T01:30:13.031Z,100091.42
2023-04-07T01:32:56.675Z,100095.04
2023-04-07T01:35:27.213Z,100101.71
2023-04-07T01:37:56.574Z,100105.70
2023-04-07T01:40:25.893Z,100108.77
2023-04-07T01:42:57.939Z,100114.63
2023-04-07T01:45:27.703Z,100115.00
2023-04-07T01:47:56.845Z,100115.84
2023-04-07T01:50:26.431Z,100116.40
2023-04-07T01:52:55.609Z,100117.52
2023-04-07T01:55:25.184Z,100118.48
2023-04-07T01:58:07.332Z,100118.80
2023-04-07T02:00:37.592Z,100124.34
2023-04-07T02:03:23.485Z,100117.36
2023-04-07T02:05:56.656Z,100117.59
2023-04-07T02:08:31.173Z,100123.01
2023-04-07T02:11:03.925Z,100127.95
2023-04-07T02:13:37.815Z,100126.46
2023-04-07T02:16:08.232Z,100131.11
2023-04-07T02:18:38.786Z,100133.14
2023-04-07T02:21:09.399Z,100130.04
2023-04-07T02:23:39.287Z,100128.11
2023-04-07T02:26:08.227Z,100122.84
2023-04-07T02:28:37.219Z,100117.69
2023-04-07T02:31:06.343Z,100117.95
2023-04-07T02:33:36.231Z,100114.35
2023-04-07T02:36:04.595Z,100113.88
2023-04-07T02:38:33.105Z,100111.98
2023-04-07T02:41:01.471Z,100111.73
2023-04-07T02:43:31.861Z,100109.42
2023-04-07T02:46:00.336Z,100111.07
2023-04-07T02:48:29.798Z,100112.91
2023-04-07T02:50:59.125Z,100115.38
2023-04-07T02:53:32.978Z,100116.58
2023-04-07T02:56:01.398Z,100118.04
2023-04-07T02:58:30.138Z,100118.98
2023-04-07T03:00:58.462Z,100115.47
2023-04-07T03:03:32.338Z,100117.04
2023-04-07T03:06:22.673Z,100124.61
2023-04-07T03:08:59.690Z,100127.31
2023-04-07T03:11:28.939Z,100128.58
2023-04-07T03:13:58.202Z,100129.36
2023-04-07T03:16:41.166Z,100133.44
2023-04-07T03:19:14.676Z,100132.14
2023-04-07T03:21:48.760Z,100132.27
2023-04-07T03:24:19.690Z,100130.23
2023-04-07T03:26:48.446Z,100129.18
2023-04-07T03:29:37.718Z,100124.67
2023-04-07T03:32:08.106Z,100127.58
2023-04-07T03:34:36.404Z,100133.42
2023-04-07T03:37:05.488Z,100132.23
2023-04-07T03:39:37.565Z,100131.11
2023-04-07T03:42:13.304Z,100133.67
2023-04-07T03:44:43.009Z,100137.91
2023-04-07T03:47:11.562Z,100134.91
2023-04-07T03:49:40.562Z,100132.34
2023-04-07T03:52:09.199Z,100135.88
2023-04-07T03:54:40.684Z,100136.13
2023-04-07T03:57:09.949Z,100135.61
2023-04-07T03:59:42.749Z,100133.64
2023-04-07T04:02:11.800Z,100136.17
2023-04-07T04:04:41.568Z,100135.39
2023-04-07T04:07:10.572Z,100137.98
2023-04-07T04:09:51.682Z,100139.23
2023-04-07T04:12:20.241Z,100137.70
2023-04-07T04:15:00.822Z,100139.73
2023-04-07T04:17:29.750Z,100140.61
2023-04-07T04:19:58.163Z,100143.62
2023-04-07T04:22:33.675Z,100149.20
2023-04-07T04:25:03.132Z,100147.92
2023-04-07T04:27:35.951Z,100149.11
2023-04-07T04:30:12.938Z,100154.08
2023-04-07T04:32:47.874Z,100154.71
2023-04-07T04:35:20.140Z,100153.30
2023-04-07T04:37:58.919Z,100152.70
2023-04-07T04:40:28.101Z,100150.00
2023-04-07T04:42:57.073Z,100146.39
2023-04-07T04:45:26.400Z,100150.40
2023-04-07T04:47:57.219Z,100145.79
2023-04-07T04:50:25.839Z,100146.59
2023-04-07T04:52:54.215Z,100144.24
2023-04-07T04:55:25.699Z,100141.20
2023-04-07T04:57:54.939Z,100133.95
2023-04-07T05:00:36.856Z,100138.04
2023-04-07T05:03:08.462Z,100136.48
2023-04-07T05:05:39.672Z,100135.73
2023-04-07T05:08:11.414Z,100135.40
2023-04-07T05:10:41.018Z,100137.36
2023-04-07T05:13:12.663Z,100136.40
2023-04-07T05:15:43.492Z,100139.19
2023-04-07T05:18:13.455Z,100137.09
2023-04-07T05:20:44.645Z,100138.73
2023-04-07T05:23:15.202Z,100139.67
2023-04-07T05:25:44.974Z,100146.89
2023-04-07T05:28:13.284Z,100152.64
2023-04-07T05:30:41.755Z,100155.42
2023-04-07T05:33:11.449Z,100156.53
2023-04-07T05:35:47.473Z,100163.40
2023-04-07T05:38:19.667Z,100166.22
2023-04-07T05:40:48.544Z,100160.77
2023-04-07T05:43:25.455Z,100157.69
2023-04-07T05:45:53.993Z,100159.86
2023-04-07T05:48:22.709Z,100165.33
2023-04-07T05:50:51.461Z,100164.67
2023-04-07T05:53:20.071Z,100155.79
2023-04-07T05:55:50.204Z,100140.20
2023-04-07T05:58:42.219Z,100145.14
2023-04-07T06:01:12.089Z,100154.31
2023-04-07T06:03:42.256Z,100159.58
2023-04-07T06:06:16.658Z,100164.58
2023-04-07T06:08:48.809Z,100167.13
2023-04-07T06:11:17.800Z,100167.52
2023-04-07T06:13:46.792Z,100166.55
2023-04-07T06:16:18.334Z,100169.13
2023-04-07T06:18:52.518Z,100170.55
2023-04-07T06:21:20.882Z,100168.30
2023-04-07T06:23:51.845Z,100165.77
2023-04-07T06:26:21.841Z,100165.69
2023-04-07T06:28:50.161Z,100164.05
2023-04-07T06:31:21.335Z,100171.23
2023-04-07T06:33:50.936Z,100170.42
2023-04-07T06:36:21.929Z,100173.53
2023-04-07T06:38:51.187Z,100175.81
2023-04-07T06:41:19.396Z,100176.85
2023-04-07T06:43:49.773Z,100176.71
2023-04-07T06:46:19.041Z,100168.55
2023-04-07T06:48:47.679Z,100165.70
2023-04-07T06:51:16.393Z,100167.29
2023-04-07T06:53:44.722Z,100170.84
2023-04-07T06:56:13.110Z,100172.30
2023-04-07T07:15:16.225Z,100157.23
2023-04-07T07:17:45.112Z,100152.11
2023-04-07T07:20:13.533Z,100151.80
2023-04-07T07:22:42.104Z,100149.44
2023-04-07T07:25:10.566Z,100148.39
2023-04-07T07:27:38.916Z,100146.70
2023-04-07T07:30:08.074Z,100144.81
2023-04-07T07:32:50.453Z,100139.69
2023-04-07T07:35:18.720Z,100143.11
2023-04-07T07:37:47.736Z,100137.42
2023-04-07T07:40:16.539Z,100142.03
2023-04-07T07:42:46.716Z,100138.56
2023-04-07T07:45:17.658Z,100137.20
2023-04-07T07:47:46.200Z,100138.66
2023-04-07T07:50:14.578Z,100139.98
2023-04-07T07:52:43.623Z,100147.65
2023-04-07T07:55:11.953Z,100144.05
2023-04-07T07:57:41.529Z,100143.80
2023-04-07T08:00:10.637Z,100143.70
2023-04-07T08:03:00.792Z,100143.36
2023-04-07T08:05:30.125Z,100147.04
2023-04-07T08:07:58.768Z,100143.65
2023-04-07T08:10:27.081Z,100147.63
2023-04-07T08:12:58.765Z,100145.84
2023-04-07T08:15:27.360Z,100142.66
2023-04-07T08:17:56.630Z,100143.83
2023-04-07T08:20:27.743Z,100144.77
2023-04-07T08:22:56.415Z,100138.38
2023-04-07T08:25:26.397Z,100146.49
2023-04-07T08:27:56.729Z,100146.89
2023-04-07T08:30:25.092Z,100144.55
2023-04-07T08:33:08.804Z,100145.45
2023-04-07T08:35:37.131Z,100148.14
2023-04-07T08:38:06.365Z,100146.96
2023-04-07T08:40:34.828Z,100148.21
2023-04-07T08:43:09.550Z,100149.23
2023-04-07T08:45:40.703Z,100146.00
2023-04-07T08:48:18.967Z,100149.13
2023-04-07T08:50:53.081Z,100146.52
2023-04-07T08:53:32.282Z,100149.81
2023-04-07T08:56:02.304Z,100152.48
2023-04-07T08:58:31.540Z,100150.33
2023-04-07T09:01:00.180Z,100153.32
2023-04-07T09:03:32.943Z,100154.36
2023-04-07T09:06:02.529Z,100154.92
2023-04-07T09:08:31.397Z,100154.75
2023-04-07T09:11:03.258Z,100159.02
2023-04-07T09:13:32.045Z,100157.87
2023-04-07T09:16:02.480Z,100159.16
2023-04-07T09:18:33.080Z,100157.67
2023-04-07T09:21:05.024Z,100162.16
2023-04-07T09:23:39.046Z,100167.51
2023-04-07T09:26:23.063Z,100169.05
2023-04-07T09:29:03.046Z,100171.70
2023-04-07T09:31:52.999Z,100171.33
2023-04-07T09:34:28.918Z,100170.70
2023-04-07T09:36:58.715Z,100165.06
2023-04-07T09:39:27.654Z,100161.07
2023-04-07T09:41:55.972Z,100164.44
2023-04-07T09:44:25.733Z,100167.52
2023-04-07T09:46:59.347Z,100169.90
2023-04-07T09:49:27.819Z,100171.56
2023-04-07T09:52:08.472Z,100172.73
2023-04-07T09:54:39.757Z,100171.93
2023-04-07T09:57:10.844Z,100172.15
2023-04-07T09:59:44.876Z,100174.63
2023-04-07T10:02:13.313Z,100174.84
2023-04-07T10:04:42.587Z,100173.04
2023-04-07T10:07:11.339Z,100171.66
2023-04-07T10:09:41.648Z,100171.48
2023-04-07T10:12:11.397Z,100163.88
2023-04-07T10:14:40.419Z,100160.84
2023-04-07T10:17:08.937Z,100152.94
2023-04-07T10:19:38.238Z,100147.63
2023-04-07T10:22:07.491Z,100144.98
2023-04-07T10:24:53.881Z,100140.29
2023-04-07T10:27:33.306Z,100133.51
2023-04-07T10:30:04.539Z,100127.30
2023-04-07T10:32:54.527Z,100118.80
2023-04-07T10:35:27.154Z,100117.30
2023-04-07T10:38:08.954Z,100117.41
2023-04-07T10:40:38.458Z,100116.54
2023-04-07T10:43:09.815Z,100115.27
2023-04-07T10:45:47.343Z,100109.36
2023-04-07T10:48:18.731Z,100112.15
2023-04-07T10:51:07.612Z,100107.46
2023-04-07T10:53:38.574Z,100102.44
2023-04-07T10:56:07.210Z,100099.87
2023-04-07T10:58:36.080Z,100097.89
2023-04-07T11:01:04.992Z,100097.80
2023-04-07T11:03:42.242Z,100097.45
2023-04-07T11:06:12.784Z,100092.83
2023-04-07T11:40:34.425Z,100067.08
2023-04-07T11:43:06.194Z,100070.94
2023-04-07T11:45:36.170Z,100071.89
2023-04-07T11:48:04.749Z,100069.02
2023-04-07T11:50:42.821Z,100068.94
2023-04-07T11:53:11.799Z,100074.23
2023-04-07T11:55:40.273Z,100067.27
2023-04-07T11:58:12.341Z,100068.17
2023-04-07T12:01:06.938Z,100069.52
2023-04-07T12:03:38.336Z,100066.07
2023-04-07T12:06:08.649Z,100064.33
2023-04-07T12:08:39.020Z,100069.23
2023-04-07T12:11:09.447Z,100069.69
2023-04-07T12:13:41.631Z,100071.39
2023-04-07T12:16:10.609Z,100070.94
2023-04-07T12:18:39.085Z,100074.66
2023-04-07T12:21:10.627Z,100072.69
2023-04-07T12:23:41.272Z,100075.48
2023-04-07T12:26:12.053Z,100074.86
2023-04-07T12:28:41.570Z,100079.24
2023-04-07T12:31:10.405Z,100081.00
2023-04-07T12:33:38.753Z,100082.92
2023-04-07T12:36:07.928Z,100085.23
2023-04-07T12:38:37.376Z,100087.52
2023-04-07T12:41:05.725Z,100094.77
2023-04-07T12:43:34.957Z,100094.89
2023-04-07T12:46:06.209Z,100091.11
2023-04-07T12:48:35.213Z,100093.23
2023-04-07T12:51:03.785Z,100090.25
2023-04-07T12:53:33.588Z,100091.91
2023-04-07T12:56:01.913Z,100094.87
2023-04-07T12:58:35.535Z,100099.79
2023-04-07T13:01:04.266Z,100104.02
2023-04-07T13:03:42.456Z,100110.51
2023-04-07T13:06:11.997Z,100107.50
2023-04-07T13:08:41.000Z,100103.99
2023-04-07T13:11:09.417Z,100102.83
2023-04-07T13:13:38.655Z,100101.70
2023-04-07T13:16:07.425Z,100105.55
2023-04-07T13:18:36.823Z,100106.77
2023-04-07T13:21:40.654Z,100107.23
2023-04-07T13:23:55.055Z,100108.99
2023-04-07T13:26:24.299Z,100114.23
2023-04-07T13:28:53.227Z,100116.82
2023-04-07T13:31:22.294Z,100122.98
2023-04-07T13:33:51.882Z,100128.64
2023-04-07T13:36:23.129Z,100121.88
2023-04-07T13:38:54.047Z,100132.65
2023-04-07T13:41:23.132Z,100130.25
2023-04-07T13:43:52.083Z,100131.90
2023-04-07T13:46:28.430Z,100132.14
2023-04-07T13:48:57.574Z,100131.98
2023-04-07T13:51:28.287Z,100129.81
2023-04-07T13:53:56.772Z,100133.52
2023-04-07T13:56:25.190Z,100127.71
2023-04-07T13:58:54.161Z,100133.91
2023-04-07T14:01:23.017Z,100133.91
2023-04-07T14:03:53.320Z,100143.54
2023-04-07T14:06:23.033Z,100140.05
2023-04-07T14:08:52.568Z,100143.92
2023-04-07T14:11:24.610Z,100147.35
2023-04-07T14:13:58.772Z,100149.98
2023-04-07T14:16:28.883Z,100158.05
2023-04-07T14:18:58.408Z,100159.18
2023-04-07T14:21:28.034Z,100155.73
2023-04-07T14:23:56.877Z,100157.23
2023-04-07T14:26:25.138Z,100160.10
2023-04-07T14:28:54.068Z,100161.80
2023-04-07T14:31:22.537Z,100168.02
2023-04-07T14:33:51.234Z,100174.34
2023-04-07T14:36:19.891Z,100178.91
2023-04-07T14:38:48.092Z,100176.14
2023-04-07T14:41:16.766Z,100179.05
2023-04-07T14:43:45.232Z,100179.91
2023-04-07T14:46:15.147Z,100181.60
2023-04-07T14:48:46.366Z,100180.44
2023-04-07T14:51:14.718Z,100180.14
2023-04-07T14:53:45.996Z,100178.87
2023-04-07T14:56:14.564Z,100183.14
2023-04-07T14:58:46.619Z,100184.55
2023-04-07T15:01:15.447Z,100188.34
2023-04-07T15:03:45.253Z,100186.98
2023-04-07T15:06:14.102Z,100192.21
2023-04-07T15:08:44.045Z,100200.27
2023-04-07T15:11:13.362Z,100204.37
2023-04-07T15:13:41.892Z,100203.37
2023-04-07T15:16:12.714Z,100206.98
2023-04-07T15:18:44.851Z,100209.83
2023-04-07T15:21:15.018Z,100213.25
2023-04-07T15:23:44.055Z,100212.83
2023-04-07T15:26:12.619Z,100216.28
2023-04-07T15:28:42.253Z,100217.71
2023-04-07T15:31:10.826Z,100215.84
2023-04-07T15:33:40.963Z,100213.08
2023-04-07T15:36:09.542Z,100215.55
2023-04-07T15:38:40.543Z,100217.74
2023-04-07T15:41:08.906Z,100223.08
2023-04-07T15:43:37.995Z,100224.41
2023-04-07T15:46:06.364Z,100233.06
2023-04-07T15:48:35.058Z,100236.59
2023-04-07T15:51:03.538Z,100237.30
2023-04-07T15:53:32.448Z,100244.75
2023-04-07T15:56:00.855Z,100252.23
2023-04-07T15:58:29.403Z,100262.56
2023-04-07T16:00:58.060Z,100259.90
2023-04-07T16:03:28.492Z,100256.83
2023-04-07T16:05:57.174Z,100260.40
2023-04-07T16:08:25.535Z,100265.02
2023-04-07T16:10:54.664Z,100264.28
2023-04-07T16:13:23.446Z,100260.11
2023-04-07T16:15:59.306Z,100258.94
2023-04-07T16:18:28.539Z,100262.61
2023-04-07T16:20:56.818Z,100259.27
2023-04-07T16:23:26.587Z,100255.13
2023-04-07T16:25:55.625Z,100267.30
2023-04-07T16:28:24.018Z,100271.44
2023-04-07T16:30:57.128Z,100272.83
2023-04-07T16:33:28.309Z,100276.27
2023-04-07T16:35:56.583Z,100276.89
2023-04-07T16:38:27.548Z,100279.94
2023-04-07T16:41:04.020Z,100281.42
2023-04-07T16:43:35.719Z,100281.55
2023-04-07T16:46:06.061Z,100283.30
2023-04-07T16:48:34.549Z,100281.61
2023-04-07T16:51:03.324Z,100290.77
2023-04-07T16:53:31.657Z,100294.33
2023-04-07T16:56:04.540Z,100304.34
2023-04-07T16:58:33.761Z,100305.91
2023-04-07T17:01:02.409Z,100310.30
2023-04-07T17:03:32.926Z,100311.40
2023-04-07T17:06:05.696Z,100312.36
2023-04-07T17:08:36.055Z,100317.45
2023-04-07T17:11:08.342Z,100322.14
2023-04-07T17:13:36.787Z,100321.73
2023-04-07T17:16:14.522Z,100323.48
2023-04-07T17:18:45.166Z,100329.30
2023-04-07T17:21:15.640Z,100332.45
2023-04-07T17:23:45.720Z,100341.00
2023-04-07T17:26:14.015Z,100352.60
2023-04-07T17:28:42.336Z,100354.83
2023-04-07T17:31:13.724Z,100356.34
2023-04-07T17:33:42.936Z,100360.40
2023-04-07T17:36:11.263Z,100361.15
2023-04-07T17:38:40.610Z,100361.22
2023-04-07T17:41:09.144Z,100359.97
2023-04-07T17:43:37.911Z,100362.71
2023-04-07T17:46:06.338Z,100357.52
2023-04-07T17:48:34.664Z,100356.67
2023-04-07T17:51:04.209Z,100352.27
2023-04-07T17:53:33.067Z,100349.55
2023-04-07T17:56:01.769Z,100350.19
2023-04-07T17:58:30.751Z,100354.86
2023-04-07T18:00:59.488Z,100354.02
2023-04-07T18:03:29.099Z,100360.13
2023-04-07T18:05:57.570Z,100354.77
2023-04-07T18:08:26.312Z,100356.77
2023-04-07T18:10:58.916Z,100353.74
2023-04-07T18:13:30.120Z,100356.23
2023-04-07T18:15:59.879Z,100358.98
2023-04-07T18:18:33.875Z,100358.27
2023-04-07T18:21:02.349Z,100349.75
2023-04-07T18:23:30.834Z,100336.67
2023-04-07T18:26:02.924Z,100326.85
2023-04-07T18:28:31.660Z,100329.94
2023-04-07T18:31:10.059Z,100323.89
2023-04-07T18:33:40.519Z,100322.02
2023-04-07T18:36:08.874Z,100328.34
2023-04-07T18:38:39.275Z,100333.69
2023-04-07T18:41:08.167Z,100325.61
2023-04-07T18:43:36.551Z,100319.68
2023-04-07T18:46:05.206Z,100318.85
2023-04-07T18:48:33.502Z,100317.52
2023-04-07T18:51:01.781Z,100319.41
2023-04-07T18:53:30.667Z,100317.63
2023-04-07T18:55:59.403Z,100310.03
2023-04-07T18:58:28.230Z,100312.88
2023-04-07T19:00:57.225Z,100318.55
2023-04-07T19:03:27.323Z,100320.90
2023-04-07T19:05:55.817Z,100324.42
2023-04-07T19:08:34.238Z,100323.45
2023-04-07T19:11:04.560Z,100324.80
2023-04-07T19:13:33.032Z,100329.34
2023-04-07T19:16:02.034Z,100333.62
2023-04-07T19:18:32.106Z,100335.31
2023-04-07T19:21:01.640Z,100339.81
2023-04-07T19:23:30.834Z,100344.21
2023-04-07T19:26:01.157Z,100342.62
2023-04-07T19:28:31.432Z,100338.23
2023-04-07T19:30:59.687Z,100336.15
2023-04-07T19:33:28.654Z,100333.36
2023-04-07T19:35:57.130Z,100328.70
2023-04-07T19:38:25.437Z,100331.11
2023-04-07T19:40:54.131Z,100328.12
2023-04-07T19:43:22.724Z,100325.90
2023-04-07T19:45:51.202Z,100333.09
2023-04-07T19:48:20.510Z,100334.66
2023-04-07T19:50:51.500Z,100337.96
2023-04-07T19:53:25.612Z,100339.02
2023-04-07T19:55:54.361Z,100346.08
2023-04-07T19:58:23.616Z,100343.25
2023-04-07T20:00:54.322Z,100341.01
2023-04-07T20:03:24.599Z,100340.22
2023-04-07T20:05:53.331Z,100342.60
2023-04-07T20:08:22.020Z,100338.34
2023-04-07T20:10:52.792Z,100335.92
2023-04-07T20:13:24.008Z,100337.56
2023-04-07T20:15:53.620Z,100343.66
2023-04-07T20:18:22.013Z,100345.45
2023-04-07T20:21:01.280Z,100342.64
2023-04-07T20:23:31.025Z,100340.20
2023-04-07T20:26:00.101Z,100340.45
2023-04-07T20:28:28.572Z,100334.86
2023-04-07T20:30:57.201Z,100340.39
2023-04-07T20:33:25.871Z,100338.55
2023-04-07T20:35:54.989Z,100335.73
2023-04-07T20:38:23.488Z,100336.98
2023-04-07T20:40:54.514Z,100335.32
2023-04-07T20:43:24.544Z,100333.74
2023-04-07T20:45:53.495Z,100333.73
2023-04-07T20:48:25.909Z,100331.36
2023-04-07T20:50:54.298Z,100331.63
2023-04-07T20:53:25.547Z,100333.08
2023-04-07T20:55:53.970Z,100336.38
2023-04-07T20:58:22.485Z,100337.59
2023-04-07T21:00:58.234Z,100331.90
2023-04-07T21:03:28.274Z,100330.23
2023-04-07T21:05:57.620Z,100328.02
2023-04-07T21:08:30.824Z,100329.27
2023-04-07T21:10:59.535Z,100332.04
2023-04-07T21:13:29.442Z,100331.87
2023-04-07T21:15:59.555Z,100332.08
2023-04-07T21:18:28.788Z,100328.96
2023-04-07T21:21:00.010Z,100328.45
2023-04-07T21:23:31.487Z,100323.48
2023-04-07T21:26:01.883Z,100324.23
2023-04-07T21:28:34.606Z,100325.10
2023-04-07T21:31:04.579Z,100324.57
2023-04-07T21:33:33.264Z,100324.27
2023-04-07T21:36:03.898Z,100318.98
2023-04-07T21:38:32.984Z,100317.44
2023-04-07T21:41:01.729Z,100320.25
2023-04-07T21:43:30.362Z,100323.77
2023-04-07T21:45:59.291Z,100319.68
2023-04-07T21:48:27.794Z,100314.17
2023-04-07T21:50:56.121Z,100312.41
2023-04-07T21:53:24.790Z,100314.49
2023-04-07T21:55:53.724Z,100314.59
2023-04-07T21:58:23.700Z,100310.44
2023-04-07T22:00:53.738Z,100303.39
2023-04-07T22:03:22.313Z,100300.55
2023-04-07T22:05:51.875Z,100304.10
2023-04-07T22:08:20.214Z,100301.75
2023-04-07T22:10:48.633Z,100296.73
2023-04-07T22:13:17.380Z,100297.27
2023-04-07T22:15:46.550Z,100294.48
2023-04-07T22:18:14.931Z,100295.88
2023-04-07T22:20:43.924Z,100298.24
2023-04-07T22:23:12.596Z,100299.00
2023-04-07T22:25:44.780Z,100302.33
2023-04-07T22:28:13.575Z,100302.55
2023-04-07T22:30:41.965Z,100301.72
2023-04-07T22:33:11.497Z,100301.29
2023-04-07T22:35:39.872Z,100300.52
2023-04-07T22:38:13.740Z,100298.96
2023-04-07T22:40:42.146Z,100294.34
2023-04-07T22:43:10.603Z,100289.63
2023-04-07T22:45:39.894Z,100291.09
2023-04-07T22:48:08.489Z,100291.66
2023-04-07T22:50:43.820Z,100289.16
2023-04-07T22:53:12.964Z,100290.08
2023-04-07T22:55:41.510Z,100288.52
2023-04-07T22:58:10.145Z,100289.50
2023-04-07T23:00:39.624Z,100291.16
2023-04-07T23:03:09.547Z,100291.01
2023-04-07T23:05:38.588Z,100291.11
2023-04-07T23:08:07.134Z,100289.54
2023-04-07T23:10:35.685Z,100290.56
2023-04-07T23:13:04.438Z,100291.38
2023-04-07T23:15:36.083Z,100287.23
2023-04-07T23:18:08.709Z,100284.53
2023-04-07T23:20:37.348Z,100285.60
2023-04-07T23:23:11.027Z,100279.46
2023-04-07T23:25:39.393Z,100287.83
2023-04-07T23:28:07.757Z,100286.95
2023-04-07T23:30:38.545Z,100281.91
2023-04-07T23:33:08.550Z,100281.84
2023-04-07T23:35:36.977Z,100282.80
2023-04-07T23:38:05.801Z,100282.25
2023-04-07T23:40:34.183Z,100284.48
2023-04-07T23:43:02.802Z,100280.82
2023-04-07T23:45:31.196Z,100279.52
2023-04-07T23:47:59.869Z,100281.51
2023-04-07T23:50:28.577Z,100279.40
2023-04-07T23:52:57.542Z,100271.98
2023-04-07T23:55:27.302Z,100270.45
2023-04-07T23:57:55.590Z,100271.86
